< < Back
Terminal Aerodrome Forecast


Current Version              Previous Versions:   1  2  3  4  5  6  7  8  9  

Terminal Aerodrome Forecast

599
FTUS42 KGSP 010532
TAFCLT
TAF
KCLT 010532Z 0106/0206 00000KT P6SM FEW070
     FM011500 33003KT P6SM SCT060
     FM020000 20003KT P6SM BKN070=

Latest METAR

168
SAUS70 KWBC 012000 RRP
MTRCLT
METAR KCLT 011952Z VRB04KT 10SM FEW055 SCT250 33/16 A3008 RMK AO2 SLP175
T03280156


USA.gov is the U.S. government's official web portal to all federal, state and local government web resources and services.